Latest Weather Observations for Temora

IDN60801

Issued at 2:13 pm EDT Sunday 28 November 2021 (issued every 10 minutes, with the page automatically refreshed every 10 minutes)

About weather observations | Map of weather stations | Latest weather observations for NSW | Other Formats
Station Details ID: 073151 Name: TEMORA AIRPORT Lat: -34.43 Lon: 147.51 Height: 280.5 m
Data from the previous 72 hours. | See also: Recent months at Temora
Date/Time
EDT
Temp
°C
App
Temp
°C
Dew
Point
°C
Rel
Hum
%
Delta-T
°C
Wind Press
QNH
hPa
Press
MSL
hPa
Rain since
9am
mm
Dir  Spd
km/h
Gust
km/h
Spd
kts
Gust
kts
28/02:00pm 22.7 19.8 11.1 48 6.5 ESE 17 30 9 16 1019.5 1018.5 0.0
28/01:30pm 21.8 18.1 9.3 45 6.8 ESE 19 28 10 15 1019.8 1018.8 0.0
28/01:00pm 21.8 18.4 10.6 49 6.2 E 19 28 10 15 1020.4 1019.5 0.0
28/12:30pm 21.3 18.1 9.9 48 6.2 ESE 17 28 9 15 1020.7 1019.8 0.0
28/12:00pm 21.1 18.0 10.3 50 5.9 E 17 24 9 13 1021.1 1020.2 0.0
28/11:30am 20.3 15.7 9.8 51 5.7 ESE 24 32 13 17 1021.4 1020.5 0.0
28/11:00am 19.5 15.0 10.2 55 5.0 ENE 24 35 13 19 1021.8 1020.9 0.0
28/10:30am 19.2 14.5 9.4 53 5.2 E 24 35 13 19 1021.9 1021.0 0.0
28/10:00am 18.3 13.0 8.3 52 5.2 E 26 43 14 23 1022.0 1021.1 0.0
28/09:30am 16.3 11.1 7.3 55 4.5 E 24 37 13 20 1022.3 1021.3 0.0
28/09:00am 16.2 9.9 7.4 56 4.4 E 30 41 16 22 1022.3 1021.3 0.0
28/08:30am 15.5 9.6 7.3 58 4.1 E 28 41 15 22 1022.3 1021.3 0.0
28/08:00am 14.7 9.3 6.5 58 4.0 ESE 24 35 13 19 1022.4 1021.4 0.0
28/07:30am 13.4 8.4 6.3 62 3.4 E 22 32 12 17 1022.3 1021.3 0.0
28/07:00am 12.7 8.0 6.1 64 3.2 E 20 35 11 19 1022.4 1021.4 0.0
28/06:30am 12.3 7.7 5.7 64 3.1 ESE 19 28 10 15 1021.7 1020.8 0.0
28/06:00am 12.0 7.5 5.9 66 2.9 ESE 19 26 10 14 1021.4 1020.5 0.0
28/05:30am 11.9 7.4 6.2 68 2.7 ESE 19 28 10 15 1021.3 1020.4 0.0
28/05:00am 11.7 7.7 6.6 71 2.4 ESE 17 24 9 13 1021.1 1020.2 0.0
28/04:30am 11.6 7.6 6.7 72 2.4 ESE 17 26 9 14 1020.7 1019.8 0.0
28/04:00am 11.3 8.1 7.0 75 2.1 ESE 13 19 7 10 1020.7 1019.8 0.0
28/03:30am 11.4 8.3 7.3 76 2.0 ESE 13 17 7 9 1020.7 1019.8 0.0
28/03:00am 11.6 8.6 7.5 76 2.0 ESE 13 19 7 10 1020.6 1019.7 0.0
28/02:30am 11.5 8.0 7.4 76 2.0 ESE 15 19 8 10 1020.6 1019.7 0.0
28/02:00am 11.8 8.8 7.5 75 2.1 ESE 13 19 7 10 1020.8 1019.9 0.0
28/01:30am 12.3 8.5 7.4 72 2.4 ESE 17 24 9 13 1021.0 1020.1 0.0
28/01:00am 12.7 8.9 7.6 71 2.5 E 17 22 9 12 1021.0 1020.1 0.0
28/12:30am 12.9 9.1 7.6 70 2.6 E 17 26 9 14 1021.0 1020.1 0.0
28/12:00am 13.3 9.0 7.7 69 2.8 E 20 28 11 15 1021.3 1020.4 0.0
 
Date/Time
EDT
Temp
°C
App
Temp
°C
Dew
Point
°C
Rel
Hum
%
Delta-T
°C
Wind Press
QNH
hPa
Press
MSL
hPa
Rain since
9am
mm
Dir  Spd
km/h
Gust
km/h
Spd
kts
Gust
kts
27/11:30pm 13.5 9.2 7.7 68 2.9 ESE 20 30 11 16 1021.4 1020.5 0.0
27/11:00pm 13.9 9.8 7.9 67 3.0 E 19 30 10 16 1021.5 1020.6 0.0
27/10:30pm 14.4 10.1 7.9 65 3.3 E 20 28 11 15 1021.7 1020.8 0.0
27/10:00pm 14.7 9.7 8.0 64 3.4 E 24 32 13 17 1021.6 1020.7 0.0
27/09:30pm 15.0 10.4 8.0 63 3.6 E 22 30 12 16 1021.2 1020.3 0.0
27/09:00pm 15.4 10.7 7.9 61 3.8 E 22 30 12 16 1021.1 1020.2 0.0
27/08:30pm 15.9 10.9 8.2 60 3.9 E 24 35 13 19 1020.7 1019.8 0.0
27/08:00pm 16.4 11.5 8.4 59 4.1 E 24 37 13 20 1020.3 1019.4 0.0
27/07:30pm 17.4 11.7 8.3 55 4.7 E 28 41 15 22 1019.9 1018.9 0.0
27/07:00pm 18.1 12.1 8.7 54 4.9 E 30 43 16 23 1019.6 1018.6 0.0
27/06:44pm 18.5 12.8 8.2 51 5.4 E 28 46 15 25 1019.4 1018.4 0.0
27/06:30pm 18.6 12.9 8.3 51 5.4 E 28 43 15 23 1019.3 1018.3 0.0
27/06:00pm 19.0 13.4 8.9 52 5.3 E 28 39 15 21 1018.9 1017.9 0.0
27/05:30pm 19.1 13.4 8.4 50 5.6 E 28 35 15 19 1018.8 1017.8 0.0
27/05:00pm 19.8 14.7 9.1 50 5.7 ESE 26 39 14 21 1018.6 1017.6 0.0
27/04:30pm 19.5 13.5 8.5 49 5.8 ESE 30 39 16 21 1018.4 1017.5 0.0
27/04:00pm 19.9 14.4 9.2 50 5.7 ESE 28 43 15 23 1018.4 1017.5 0.0
27/03:30pm 20.0 14.5 9.0 49 5.9 E 28 39 15 21 1018.2 1017.3 0.0
27/03:00pm 20.0 15.2 9.0 49 5.9 ESE 24 43 13 23 1018.3 1017.4 0.0
27/02:30pm 19.9 14.8 9.2 50 5.7 ESE 26 35 14 19 1018.6 1017.6 0.0
27/02:00pm 20.3 14.2 9.8 51 5.7 ESE 32 41 17 22 1018.7 1017.7 0.0
27/01:30pm 20.3 15.1 10.4 53 5.4 E 28 41 15 22 1018.8 1017.8 0.0
27/01:00pm 20.2 15.1 10.6 54 5.3 ESE 28 39 15 21 1018.7 1017.7 0.0
27/12:30pm 19.4 12.7 9.6 53 5.3 ESE 35 46 19 25 1019.0 1018.0 0.0
27/12:00pm 19.1 13.0 9.9 55 5.0 ESE 32 46 17 25 1019.1 1018.1 0.0
27/11:30am 19.3 13.1 10.0 55 5.0 ESE 33 46 18 25 1019.2 1018.2 0.0
27/11:15am 18.8 12.5 9.8 56 4.8 ESE 33 52 18 28 1019.3 1018.3 0.0
27/11:00am 18.1 10.7 8.4 53 5.1 E 37 54 20 29 1019.3 1018.3 0.0
27/10:36am 17.6 11.2 8.5 55 4.7 ESE 32 50 17 27 1019.6 1018.6 0.0
27/10:30am 17.0 9.9 7.9 55 4.7 ESE 35 50 19 27 1019.6 1018.6 0.0
27/10:00am 16.6 10.9 8.3 58 4.3 ESE 28 43 15 23 1019.6 1018.6 0.0
27/09:30am 16.1 10.3 7.8 58 4.2 ESE 28 43 15 23 1019.5 1018.5 0.0
27/09:00am 15.0 10.1 8.3 64 3.4 ESE 24 35 13 19 1019.4 1018.4 9.4
27/08:30am 14.5 10.0 8.5 67 3.1 ESE 22 30 12 16 1019.0 1018.0 9.4
27/08:00am 14.8 10.8 9.2 69 2.9 ESE 20 32 11 17 1018.7 1017.7 9.4
27/07:30am 13.5 9.0 8.6 72 2.5 ESE 22 30 12 16 1018.1 1017.2 9.4
27/07:00am 13.0 9.4 8.3 73 2.4 SE 17 26 9 14 1017.9 1017.0 9.4
27/06:30am 12.9 8.3 8.2 73 2.4 ESE 22 33 12 18 1017.4 1016.5 9.4
27/06:00am 12.9 8.7 8.4 74 2.3 SE 20 32 11 17 1017.0 1016.1 9.4
27/05:30am 12.6 9.5 8.9 78 1.9 SE 15 20 8 11 1016.6 1015.6 9.4
27/05:00am 12.5 9.4 8.8 78 1.9 ESE 15 20 8 11 1016.3 1015.3 9.4
27/04:30am 12.4 9.7 9.1 80 1.7 SE 13 22 7 12 1015.8 1014.8 9.4
27/04:00am 12.5 8.7 9.1 80 1.7 ESE 19 26 10 14 1015.5 1014.5 9.4
27/03:30am 12.7 9.6 9.0 78 1.9 SE 15 20 8 11 1015.7 1014.7 9.4
27/03:00am 12.7 9.3 9.0 78 1.9 ESE 17 24 9 13 1015.4 1014.4 9.4
27/02:30am 12.8 9.4 9.1 78 1.9 SE 17 24 9 13 1015.8 1014.8 9.4
27/02:00am 13.2 9.2 8.9 75 2.2 ESE 20 30 11 16 1015.7 1014.7 9.2
27/01:30am 13.3 9.3 9.2 76 2.1 SE 20 30 11 16 1015.9 1014.9 9.2
27/01:00am 13.4 7.8 8.9 74 2.3 ESE 28 43 15 23 1015.8 1014.8 9.2
27/12:48am 13.5 7.9 8.8 73 2.4 ESE 28 44 15 24 1015.8 1014.8 9.2
27/12:30am 13.2 9.8 9.1 76 2.1 ESE 17 26 9 14 1015.9 1014.9 9.2
27/12:00am 13.1 10.4 9.0 76 2.1 SE 13 19 7 10 1015.9 1014.9 9.2
 
Date/Time
EDT
Temp
°C
App
Temp
°C
Dew
Point
°C
Rel
Hum
%
Delta-T
°C
Wind Press
QNH
hPa
Press
MSL
hPa
Rain since
9am
mm
Dir  Spd
km/h
Gust
km/h
Spd
kts
Gust
kts
26/11:30pm 13.4 9.9 8.7 73 2.4 SE 17 24 9 13 1015.6 1014.6 9.2
26/11:00pm 13.4 7.7 8.5 72 2.5 ESE 28 35 15 19 1015.0 1014.0 9.2
26/10:30pm 13.3 8.4 8.6 73 2.4 ESE 24 35 13 19 1014.9 1013.9 9.2
26/10:00pm 13.1 7.2 9.2 77 2.0 ESE 30 48 16 26 1014.5 1013.6 9.2
26/09:59pm 13.2 7.3 9.1 76 2.1 ESE 30 48 16 26 1014.4 1013.5 9.2
26/09:30pm 13.1 8.0 10.5 84 1.4 ESE 28 39 15 21 1014.0 1013.1 9.0
26/09:00pm 13.3 8.3 10.8 85 1.3 ESE 28 37 15 20 1013.7 1012.7 8.6
26/08:30pm 13.7 9.1 11.2 85 1.3 ESE 26 41 14 22 1013.6 1012.6 8.2
26/08:00pm 13.8 9.1 12.0 89 1.0 ESE 28 37 15 20 1013.4 1012.4 8.2
26/07:30pm 13.9 10.9 12.6 92 0.7 SE 20 30 11 16 1013.3 1012.3 7.8
26/07:00pm 14.0 11.1 12.9 93 0.6 SE 20 30 11 16 1013.2 1012.2 7.4
26/06:30pm 14.1 11.4 12.8 92 0.7 SE 19 28 10 15 1012.7 1011.7 7.0
26/06:00pm 14.4 9.9 12.6 89 1.0 SE 28 43 15 23 1012.0 1011.0 6.4
26/05:30pm 14.7 11.7 13.7 94 0.6 SE 22 35 12 19 1011.7 1010.7 5.4
26/05:00pm 14.8 11.8 13.7 93 0.6 SE 22 30 12 16 1011.6 1010.6 4.6
26/04:30pm 14.8 11.2 13.2 90 0.9 SE 24 33 13 18 1011.5 1010.5 4.2
26/04:08pm 15.1 10.9 13.5 90 0.9 SE 28 48 15 26 1011.2 1010.2 4.2
26/04:00pm 15.1 11.7 13.6 91 0.9 SE 24 35 13 19 1011.2 1010.2 4.2
26/03:30pm 15.2 12.3 13.9 92 0.7 SE 22 32 12 17 1010.9 1010.0 4.0
26/03:00pm 15.2 12.2 13.7 91 0.9 SE 22 32 12 17 1010.3 1009.3 3.6
26/02:44pm 15.3 11.0 13.2 87 1.2 ESE 28 46 15 25 1009.9 1008.9 3.6
26/02:30pm 15.5 12.9 13.9 90 0.9 ESE 20 37 11 20 1009.9 1008.9 3.6
26/02:00pm 15.4 12.5 14.1 92 0.7 SE 22 30 12 16 1009.6 1008.6 3.4
26/01:30pm 15.7 13.1 13.7 88 1.1 ESE 20 37 11 20 1009.4 1008.4 2.4
26/01:00pm 16.2 12.4 13.7 85 1.4 ESE 26 39 14 21 1009.4 1008.4 1.4
26/12:30pm 16.3 12.1 13.6 84 1.5 ESE 28 41 15 22 1009.3 1008.3 1.4
26/12:00pm 16.1 11.9 13.6 85 1.4 SE 28 48 15 26 1009.3 1008.3 1.0
26/11:58am 16.1 12.0 13.8 86 1.3 SE 28 48 15 26 1009.3 1008.3 0.8
26/11:30am 17.6 12.7 12.5 72 2.9 ESE 30 43 16 23 1009.1 1008.1 0.0
26/11:00am 17.7 13.0 13.2 75 2.6 ESE 30 44 16 24 1008.9 1007.9 0.0
26/10:46am 17.3 13.0 13.2 77 2.3 ESE 28 46 15 25 1008.9 1007.9 0.0
26/10:30am 17.1 12.0 13.2 78 2.2 ESE 32 44 17 24 1008.7 1007.7 0.0
26/10:00am 17.0 13.9 14.6 86 1.4 ESE 24 41 13 22 1008.2 1007.2 0.0
26/09:30am 16.8 12.1 14.4 86 1.4 ESE 32 50 17 27 1007.8 1006.8 0.0
26/09:27am 16.9 12.2 14.4 85 1.5 ESE 32 50 17 27 1007.8 1006.8 0.0
26/09:00am 17.1 14.1 14.7 86 1.4 ESE 24 35 13 19 1007.8 1006.8 5.8
26/08:30am 16.9 15.1 15.6 92 0.8 E 19 30 10 16 1007.9 1006.9 5.8
26/08:00am 16.8 17.3 16.6 99 0.1 E 9 15 5 8 1007.8 1006.8 5.8
26/07:30am 16.6 15.5 16.3 98 0.2 E 17 22 9 12 1007.4 1006.3 5.6
26/07:00am 16.7 14.9 16.1 96 0.4 E 20 33 11 18 1007.0 1006.0 5.2
26/06:30am 16.9 16.0 15.9 94 0.6 ENE 15 24 8 13 1006.9 1005.9 4.8
26/06:00am 17.5 17.4 16.0 91 0.9 E 11 15 6 8 1006.5 1005.5 3.6
26/05:30am 17.7 17.1 15.7 88 1.2 E 13 17 7 9 1006.2 1005.2 2.4
26/05:00am 17.7 17.2 15.9 89 1.1 ESE 13 17 7 9 1005.9 1004.9 2.4
26/04:30am 18.1 17.4 16.4 90 1.0 ESE 15 19 8 10 1005.5 1004.5 2.4
26/04:00am 18.5 18.1 17.2 92 0.8 ESE 15 19 8 10 1005.6 1004.6 2.4
26/03:30am 18.6 19.3 17.9 96 0.4 SE 11 15 6 8 1006.0 1005.0 2.4
26/03:00am 18.5 19.3 18.2 98 0.2 SE 11 13 6 7 1006.1 1005.1 2.4
26/02:30am 18.4 19.7 18.4 100 0.0 SE 9 11 5 6 1006.3 1005.3 2.4
26/02:00am 18.4 19.3 18.4 100 0.0 SSW 11 15 6 8 1006.4 1005.4 2.4
26/01:30am 18.2 19.8 18.2 100 0.0 S 7 9 4 5 1006.5 1005.5 2.4
26/01:00am 18.0 19.7 18.0 100 0.0 S 6 9 3 5 1007.1 1006.1 2.4
26/12:30am 17.6 18.9 17.6 100 0.0 SSW 7 11 4 6 1007.1 1006.1 2.4
26/12:00am 17.4 18.7 17.2 99 0.1 SW 6 7 3 4 1007.2 1006.2 2.4
 
Date/Time
EDT
Temp
°C
App
Temp
°C
Dew
Point
°C
Rel
Hum
%
Delta-T
°C
Wind Press
QNH
hPa
Press
MSL
hPa
Rain since
9am
mm
Dir  Spd
km/h
Gust
km/h
Spd
kts
Gust
kts
25/11:30pm 18.0 19.1 18.0 100 0.0 SSW 9 11 5 6 1006.9 1005.9 2.4
25/11:00pm 18.1 18.9 18.1 100 0.0 S 11 13 6 7 1006.7 1005.7 2.4
25/10:30pm 18.2 19.5 17.6 96 0.4 SSE 7 9 4 5 1007.2 1006.2 2.4
25/10:00pm 18.9 19.8 18.4 97 0.3 ESE 11 15 6 8 1007.1 1006.1 2.4
25/09:30pm 19.3 20.4 18.8 97 0.3 SE 11 15 6 8 1007.7 1006.7 2.4
25/09:00pm 19.2 20.5 18.5 96 0.4 S 9 13 5 7 1007.6 1006.5 2.2
25/08:30pm 19.3 21.0 18.5 95 0.5 SSW 7 9 4 5 1007.1 1006.1 2.2
25/08:00pm 19.8 21.2 18.6 93 0.8 SE 9 11 5 6 1006.9 1005.9 2.2
25/07:30pm 19.8 21.2 18.6 93 0.8 SSE 9 13 5 7 1007.0 1006.0 2.2
25/07:00pm 20.0 20.3 18.7 92 0.8 SSE 15 20 8 11 1006.6 1005.6 2.2
25/06:30pm 20.4 20.2 18.5 89 1.2 SE 17 24 9 13 1006.5 1005.5 2.2
25/06:00pm 21.0 21.9 19.3 90 1.1 SE 13 19 7 10 1006.4 1005.4 2.2
25/05:30pm 20.6 21.0 19.1 91 1.0 ENE 15 20 8 11 1006.5 1005.5 2.2
25/05:00pm 20.1 18.9 18.4 90 1.1 E 22 28 12 15 1006.7 1005.7 2.2
25/04:30pm 21.6 23.3 20.2 92 0.9 SE 11 13 6 7 1006.8 1005.8 2.2
25/04:00pm 21.2 23.0 20.4 95 0.5 S 11 15 6 8 1007.2 1006.2 2.2
25/03:30pm 20.9 22.5 19.9 94 0.6 SSW 11 15 6 8 1007.4 1006.3 2.2
25/03:00pm 21.3 23.1 19.6 90 1.1 S 9 11 5 6 1007.7 1006.7 1.2
25/02:30pm 21.7 24.4 19.4 87 1.5 WNW 4 7 2 4 1007.8 1006.8 0.6

Other formats

Comma delimited format used in spreadsheet applications
http://www.bom.gov.au/fwo/IDN60801/IDN60801.95722.axf

JavaScript Object Notation format (JSON) in row-major order
http://www.bom.gov.au/fwo/IDN60801/IDN60801.95722.json

Data quality

Most of these data are generated automatically and are frequently updated. Quality checks on data are not normally performed. It is possible for incorrect values to appear. Refer to information at About Latest Weather Observations and please check the disclaimer before using these data.